sensor_id;sensor_type;location;lat;lon;timestamp;pressure;altitude;pressure_sealevel;temperature;humidity
30875;BME280;17581;43.222;27.924;2024-01-16T00:00:49;99223.34;;;9.91;62.59
30875;BME280;17581;43.222;27.924;2024-01-16T00:03:14;99201.47;;;9.85;62.50
30875;BME280;17581;43.222;27.924;2024-01-16T00:05:40;99209.44;;;9.95;62.52
30875;BME280;17581;43.222;27.924;2024-01-16T00:08:05;99222.59;;;10.06;61.88
30875;BME280;17581;43.222;27.924;2024-01-16T00:10:31;99206.28;;;10.00;62.05
30875;BME280;17581;43.222;27.924;2024-01-16T00:12:56;99214.53;;;10.06;62.41
30875;BME280;17581;43.222;27.924;2024-01-16T00:15:22;99215.72;;;10.04;62.88
30875;BME280;17581;43.222;27.924;2024-01-16T00:17:48;99200.53;;;9.95;63.42
30875;BME280;17581;43.222;27.924;2024-01-16T00:20:13;99212.50;;;10.18;63.59
30875;BME280;17581;43.222;27.924;2024-01-16T00:22:39;99212.25;;;10.29;63.19
30875;BME280;17581;43.222;27.924;2024-01-16T00:25:05;99209.50;;;10.21;64.30
30875;BME280;17581;43.222;27.924;2024-01-16T00:27:30;99205.81;;;10.22;65.01
30875;BME280;17581;43.222;27.924;2024-01-16T00:29:56;99208.03;;;10.26;65.22
30875;BME280;17581;43.222;27.924;2024-01-16T00:32:21;99177.47;;;10.10;65.14
30875;BME280;17581;43.222;27.924;2024-01-16T00:34:47;99201.53;;;10.37;64.79
30875;BME280;17581;43.222;27.924;2024-01-16T00:37:13;99197.91;;;10.46;64.98
30875;BME280;17581;43.222;27.924;2024-01-16T00:39:38;99197.97;;;10.54;65.58
30875;BME280;17581;43.222;27.924;2024-01-16T00:42:04;99197.16;;;10.62;65.31
30875;BME280;17581;43.222;27.924;2024-01-16T00:44:31;99184.56;;;10.62;65.35
30875;BME280;17581;43.222;27.924;2024-01-16T00:46:56;99197.72;;;10.73;65.33
30875;BME280;17581;43.222;27.924;2024-01-16T00:49:22;99200.59;;;10.80;66.25
30875;BME280;17581;43.222;27.924;2024-01-16T00:51:48;99176.91;;;10.75;65.51
30875;BME280;17581;43.222;27.924;2024-01-16T00:54:13;99188.72;;;10.90;65.32
30875;BME280;17581;43.222;27.924;2024-01-16T00:56:41;99166.69;;;10.87;65.30
30875;BME280;17581;43.222;27.924;2024-01-16T00:59:07;99182.03;;;10.95;65.06
30875;BME280;17581;43.222;27.924;2024-01-16T01:01:32;99178.00;;;10.99;65.18
30875;BME280;17581;43.222;27.924;2024-01-16T01:03:58;99172.66;;;11.07;65.39
30875;BME280;17581;43.222;27.924;2024-01-16T01:06:23;99137.81;;;10.97;65.14
30875;BME280;17581;43.222;27.924;2024-01-16T01:08:49;99148.13;;;11.10;64.57
30875;BME280;17581;43.222;27.924;2024-01-16T01:11:14;99141.06;;;11.17;64.66
30875;BME280;17581;43.222;27.924;2024-01-16T01:13:40;99139.69;;;11.05;64.92
30875;BME280;17581;43.222;27.924;2024-01-16T01:16:05;99150.63;;;11.11;64.52
30875;BME280;17581;43.222;27.924;2024-01-16T01:18:31;99138.16;;;11.10;64.70
30875;BME280;17581;43.222;27.924;2024-01-16T01:20:57;99149.13;;;11.17;64.46
30875;BME280;17581;43.222;27.924;2024-01-16T01:23:22;99125.41;;;11.20;64.58
30875;BME280;17581;43.222;27.924;2024-01-16T01:25:47;99134.66;;;11.18;64.25
30875;BME280;17581;43.222;27.924;2024-01-16T01:28:13;99129.09;;;11.11;64.39
30875;BME280;17581;43.222;27.924;2024-01-16T01:30:39;99119.50;;;11.01;64.10
30875;BME280;17581;43.222;27.924;2024-01-16T01:33:04;99132.78;;;10.94;63.81
30875;BME280;17581;43.222;27.924;2024-01-16T01:35:30;99145.19;;;10.95;63.68
30875;BME280;17581;43.222;27.924;2024-01-16T01:37:56;99130.56;;;10.89;63.92
30875;BME280;17581;43.222;27.924;2024-01-16T01:40:22;99136.78;;;10.90;64.39
30875;BME280;17581;43.222;27.924;2024-01-16T01:42:47;99136.25;;;10.86;64.36
30875;BME280;17581;43.222;27.924;2024-01-16T01:45:13;99123.97;;;10.76;64.38
30875;BME280;17581;43.222;27.924;2024-01-16T01:47:39;99135.41;;;10.78;63.71
30875;BME280;17581;43.222;27.924;2024-01-16T01:50:08;99120.06;;;10.70;64.31
30875;BME280;17581;43.222;27.924;2024-01-16T01:52:34;99125.28;;;10.64;64.23
30875;BME280;17581;43.222;27.924;2024-01-16T01:55:01;99113.59;;;10.47;64.32
30875;BME280;17581;43.222;27.924;2024-01-16T01:57:27;99098.22;;;10.31;64.48
30875;BME280;17581;43.222;27.924;2024-01-16T01:59:53;99112.03;;;10.36;64.32
30875;BME280;17581;43.222;27.924;2024-01-16T02:02:20;99093.47;;;10.17;64.69
30875;BME280;17581;43.222;27.924;2024-01-16T02:04:46;99109.63;;;10.25;65.02
30875;BME280;17581;43.222;27.924;2024-01-16T02:07:12;99123.88;;;10.18;65.10
30875;BME280;17581;43.222;27.924;2024-01-16T02:09:38;99107.28;;;10.05;65.10
30875;BME280;17581;43.222;27.924;2024-01-16T02:12:05;99105.22;;;9.99;65.58
30875;BME280;17581;43.222;27.924;2024-01-16T02:14:31;99113.25;;;9.91;65.71
30875;BME280;17581;43.222;27.924;2024-01-16T02:16:56;99119.16;;;9.76;65.90
30875;BME280;17581;43.222;27.924;2024-01-16T02:19:22;99106.63;;;9.59;66.10
30875;BME280;17581;43.222;27.924;2024-01-16T02:21:48;99125.34;;;9.51;66.88
30875;BME280;17581;43.222;27.924;2024-01-16T02:24:15;99113.84;;;9.41;67.03
30875;BME280;17581;43.222;27.924;2024-01-16T02:26:42;99116.91;;;9.46;67.48
30875;BME280;17581;43.222;27.924;2024-01-16T02:29:08;99107.66;;;9.41;67.80
30875;BME280;17581;43.222;27.924;2024-01-16T02:31:34;99116.06;;;9.28;68.04
30875;BME280;17581;43.222;27.924;2024-01-16T02:34:00;99122.97;;;9.30;67.82
30875;BME280;17581;43.222;27.924;2024-01-16T02:36:27;99134.41;;;9.33;68.06
30875;BME280;17581;43.222;27.924;2024-01-16T02:38:53;99087.03;;;9.06;68.32
30875;BME280;17581;43.222;27.924;2024-01-16T02:41:18;99130.88;;;9.32;68.22
30875;BME280;17581;43.222;27.924;2024-01-16T02:43:44;99128.03;;;9.34;68.40
30875;BME280;17581;43.222;27.924;2024-01-16T02:46:10;99114.25;;;9.28;68.36
30875;BME280;17581;43.222;27.924;2024-01-16T02:48:36;99119.69;;;9.19;68.59
30875;BME280;17581;43.222;27.924;2024-01-16T02:51:02;99095.38;;;9.03;68.56
30875;BME280;17581;43.222;27.924;2024-01-16T02:53:29;99095.00;;;8.98;69.15
30875;BME280;17581;43.222;27.924;2024-01-16T02:55:55;99110.66;;;9.20;69.52
30875;BME280;17581;43.222;27.924;2024-01-16T02:58:21;99118.16;;;9.16;69.71
30875;BME280;17581;43.222;27.924;2024-01-16T03:00:47;99110.16;;;9.24;69.64
30875;BME280;17581;43.222;27.924;2024-01-16T03:03:12;99103.50;;;9.28;69.68
30875;BME280;17581;43.222;27.924;2024-01-16T03:05:39;99105.03;;;9.31;69.82
30875;BME280;17581;43.222;27.924;2024-01-16T03:08:05;99117.38;;;9.42;69.47
30875;BME280;17581;43.222;27.924;2024-01-16T03:10:31;99100.34;;;9.33;69.18
30875;BME280;17581;43.222;27.924;2024-01-16T03:12:56;99116.22;;;9.44;69.04
30875;BME280;17581;43.222;27.924;2024-01-16T03:15:22;99125.22;;;9.35;68.56
30875;BME280;17581;43.222;27.924;2024-01-16T03:17:47;99098.53;;;9.16;69.06
30875;BME280;17581;43.222;27.924;2024-01-16T03:20:14;99091.22;;;9.08;69.48
30875;BME280;17581;43.222;27.924;2024-01-16T03:22:40;99093.72;;;9.19;69.41
30875;BME280;17581;43.222;27.924;2024-01-16T03:25:07;99111.69;;;9.27;69.32
30875;BME280;17581;43.222;27.924;2024-01-16T03:27:32;99125.81;;;9.29;69.24
30875;BME280;17581;43.222;27.924;2024-01-16T03:29:58;99138.53;;;9.27;69.53
30875;BME280;17581;43.222;27.924;2024-01-16T03:32:23;99120.59;;;9.10;69.29
30875;BME280;17581;43.222;27.924;2024-01-16T03:34:49;99133.16;;;9.27;69.91
30875;BME280;17581;43.222;27.924;2024-01-16T03:37:14;99122.75;;;9.24;69.85
30875;BME280;17581;43.222;27.924;2024-01-16T03:39:40;99123.75;;;9.23;69.83
30875;BME280;17581;43.222;27.924;2024-01-16T03:42:05;99133.88;;;9.29;69.83
30875;BME280;17581;43.222;27.924;2024-01-16T03:44:31;99130.34;;;9.28;70.17
30875;BME280;17581;43.222;27.924;2024-01-16T03:46:56;99143.50;;;9.40;70.13
30875;BME280;17581;43.222;27.924;2024-01-16T03:49:22;99154.03;;;9.51;70.52
30875;BME280;17581;43.222;27.924;2024-01-16T03:51:47;99119.22;;;9.41;70.48
30875;BME280;17581;43.222;27.924;2024-01-16T03:54:13;99151.94;;;9.62;70.01
30875;BME280;17581;43.222;27.924;2024-01-16T03:56:39;99160.00;;;9.62;70.21
30875;BME280;17581;43.222;27.924;2024-01-16T03:59:05;99165.13;;;9.73;70.56
30875;BME280;17581;43.222;27.924;2024-01-16T04:01:34;99168.25;;;9.87;70.65
30875;BME280;17581;43.222;27.924;2024-01-16T04:04:02;99158.13;;;9.80;70.54
30875;BME280;17581;43.222;27.924;2024-01-16T04:06:27;99148.47;;;9.88;70.59
30875;BME280;17581;43.222;27.924;2024-01-16T04:08:54;99181.25;;;10.17;70.30
30875;BME280;17581;43.222;27.924;2024-01-16T04:11:19;99188.84;;;10.21;69.97
30875;BME280;17581;43.222;27.924;2024-01-16T04:13:45;99176.44;;;10.20;69.60
30875;BME280;17581;43.222;27.924;2024-01-16T04:16:12;99202.56;;;10.36;69.38
30875;BME280;17581;43.222;27.924;2024-01-16T04:18:39;99215.91;;;10.46;69.25
30875;BME280;17581;43.222;27.924;2024-01-16T04:21:05;99212.56;;;10.52;68.58
30875;BME280;17581;43.222;27.924;2024-01-16T04:23:31;99217.09;;;10.51;68.33
30875;BME280;17581;43.222;27.924;2024-01-16T04:25:57;99225.84;;;10.53;68.73
30875;BME280;17581;43.222;27.924;2024-01-16T04:28:23;99228.22;;;10.56;68.65
30875;BME280;17581;43.222;27.924;2024-01-16T04:30:48;99224.47;;;10.49;68.50
30875;BME280;17581;43.222;27.924;2024-01-16T04:33:14;99247.91;;;10.65;68.43
30875;BME280;17581;43.222;27.924;2024-01-16T04:35:40;99237.03;;;10.66;68.18
30875;BME280;17581;43.222;27.924;2024-01-16T04:38:05;99255.88;;;10.74;67.89
30875;BME280;17581;43.222;27.924;2024-01-16T04:40:30;99217.47;;;10.56;67.62
30875;BME280;17581;43.222;27.924;2024-01-16T04:42:56;99266.63;;;10.74;68.00
30875;BME280;17581;43.222;27.924;2024-01-16T04:45:22;99257.19;;;10.70;67.98
30875;BME280;17581;43.222;27.924;2024-01-16T04:47:47;99187.88;;;10.30;68.11
30875;BME280;17581;43.222;27.924;2024-01-16T04:50:12;99261.56;;;10.71;67.40
30875;BME280;17581;43.222;27.924;2024-01-16T04:52:38;99265.78;;;10.74;67.79
30875;BME280;17581;43.222;27.924;2024-01-16T04:55:04;99258.88;;;10.71;67.69
30875;BME280;17581;43.222;27.924;2024-01-16T04:57:29;99257.50;;;10.67;67.73
30875;BME280;17581;43.222;27.924;2024-01-16T04:59:55;99296.25;;;10.82;67.14
30875;BME280;17581;43.222;27.924;2024-01-16T05:02:21;99297.31;;;10.89;67.48
30875;BME280;17581;43.222;27.924;2024-01-16T05:04:46;99307.38;;;10.87;67.33
30875;BME280;17581;43.222;27.924;2024-01-16T05:07:15;99298.47;;;10.87;67.41
30875;BME280;17581;43.222;27.924;2024-01-16T05:09:40;99303.22;;;10.93;67.45
30875;BME280;17581;43.222;27.924;2024-01-16T05:12:06;99290.88;;;10.82;66.72
30875;BME280;17581;43.222;27.924;2024-01-16T05:14:32;99312.38;;;10.82;66.89
30875;BME280;17581;43.222;27.924;2024-01-16T05:16:57;99327.06;;;10.88;66.89
30875;BME280;17581;43.222;27.924;2024-01-16T05:19:23;99308.28;;;10.70;66.28
30875;BME280;17581;43.222;27.924;2024-01-16T05:21:48;99346.75;;;10.88;66.31
30875;BME280;17581;43.222;27.924;2024-01-16T05:24:14;99340.97;;;10.83;66.40
30875;BME280;17581;43.222;27.924;2024-01-16T05:26:39;99353.97;;;10.88;65.90
30875;BME280;17581;43.222;27.924;2024-01-16T05:29:05;99354.31;;;10.93;65.91
30875;BME280;17581;43.222;27.924;2024-01-16T05:31:30;99351.09;;;10.89;65.92
30875;BME280;17581;43.222;27.924;2024-01-16T05:33:56;99367.25;;;10.89;65.51
30875;BME280;17581;43.222;27.924;2024-01-16T05:36:21;99357.13;;;10.83;65.37
30875;BME280;17581;43.222;27.924;2024-01-16T05:38:47;99379.38;;;10.93;65.06
30875;BME280;17581;43.222;27.924;2024-01-16T05:41:13;99381.09;;;10.95;64.78
30875;BME280;17581;43.222;27.924;2024-01-16T05:43:39;99382.38;;;10.90;64.43
30875;BME280;17581;43.222;27.924;2024-01-16T05:46:04;99385.06;;;10.90;64.54
30875;BME280;17581;43.222;27.924;2024-01-16T05:48:30;99382.69;;;10.87;64.39
30875;BME280;17581;43.222;27.924;2024-01-16T05:50:55;99402.28;;;10.98;63.61
30875;BME280;17581;43.222;27.924;2024-01-16T05:53:21;99393.59;;;11.04;63.66
30875;BME280;17581;43.222;27.924;2024-01-16T05:55:46;99384.41;;;10.88;62.48
30875;BME280;17581;43.222;27.924;2024-01-16T05:58:12;99393.19;;;10.99;62.13
30875;BME280;17581;43.222;27.924;2024-01-16T06:00:37;99410.41;;;11.06;61.69
30875;BME280;17581;43.222;27.924;2024-01-16T06:03:04;99378.72;;;10.91;61.66
30875;BME280;17581;43.222;27.924;2024-01-16T06:05:30;99412.91;;;11.07;61.37
30875;BME280;17581;43.222;27.924;2024-01-16T06:07:56;99424.38;;;11.09;61.17
30875;BME280;17581;43.222;27.924;2024-01-16T06:10:21;99416.72;;;10.97;60.87
30875;BME280;17581;43.222;27.924;2024-01-16T06:12:47;99443.94;;;11.19;60.47
30875;BME280;17581;43.222;27.924;2024-01-16T06:15:12;99448.13;;;11.14;60.22
30875;BME280;17581;43.222;27.924;2024-01-16T06:17:38;99430.72;;;11.00;59.99
30875;BME280;17581;43.222;27.924;2024-01-16T06:20:04;99465.28;;;11.13;59.76
30875;BME280;17581;43.222;27.924;2024-01-16T06:22:31;99464.44;;;11.12;60.04
30875;BME280;17581;43.222;27.924;2024-01-16T06:24:57;99460.84;;;11.04;60.22
30875;BME280;17581;43.222;27.924;2024-01-16T06:27:22;99469.59;;;11.06;60.27
30875;BME280;17581;43.222;27.924;2024-01-16T06:29:48;99489.50;;;11.13;59.75
30875;BME280;17581;43.222;27.924;2024-01-16T06:32:14;99505.97;;;11.10;60.05
30875;BME280;17581;43.222;27.924;2024-01-16T06:34:39;99489.41;;;11.05;60.16
30875;BME280;17581;43.222;27.924;2024-01-16T06:37:05;99492.81;;;11.07;60.36
30875;BME280;17581;43.222;27.924;2024-01-16T06:39:31;99466.41;;;10.84;60.31
30875;BME280;17581;43.222;27.924;2024-01-16T06:41:56;99494.38;;;10.91;60.58
30875;BME280;17581;43.222;27.924;2024-01-16T06:44:22;99500.19;;;10.87;60.42
30875;BME280;17581;43.222;27.924;2024-01-16T06:46:47;99500.66;;;10.82;60.69
30875;BME280;17581;43.222;27.924;2024-01-16T06:49:13;99505.28;;;10.72;60.74
30875;BME280;17581;43.222;27.924;2024-01-16T06:51:38;99502.19;;;10.67;60.96
30875;BME280;17581;43.222;27.924;2024-01-16T06:54:04;99529.38;;;10.64;61.19
30875;BME280;17581;43.222;27.924;2024-01-16T06:56:29;99547.44;;;10.54;61.39
30875;BME280;17581;43.222;27.924;2024-01-16T06:58:55;99553.19;;;10.59;60.73
30875;BME280;17581;43.222;27.924;2024-01-16T07:01:21;99544.63;;;10.46;60.52
30875;BME280;17581;43.222;27.924;2024-01-16T07:03:47;99581.47;;;10.63;60.41
30875;BME280;17581;43.222;27.924;2024-01-16T07:06:12;99591.97;;;10.57;60.65
30875;BME280;17581;43.222;27.924;2024-01-16T07:08:38;99607.56;;;10.53;61.05
30875;BME280;17581;43.222;27.924;2024-01-16T07:11:03;99606.16;;;10.49;61.01
30875;BME280;17581;43.222;27.924;2024-01-16T07:13:33;99598.81;;;10.51;60.95
30875;BME280;17581;43.222;27.924;2024-01-16T07:15:59;99595.69;;;10.46;61.16
30875;BME280;17581;43.222;27.924;2024-01-16T07:18:26;99599.50;;;10.53;61.17
30875;BME280;17581;43.222;27.924;2024-01-16T07:20:52;99608.31;;;10.46;61.24
30875;BME280;17581;43.222;27.924;2024-01-16T07:23:18;99604.81;;;10.35;61.19
30875;BME280;17581;43.222;27.924;2024-01-16T07:25:43;99633.34;;;10.46;61.21
30875;BME280;17581;43.222;27.924;2024-01-16T07:28:09;99622.75;;;10.45;61.56
30875;BME280;17581;43.222;27.924;2024-01-16T07:30:34;99641.09;;;10.49;61.41
30875;BME280;17581;43.222;27.924;2024-01-16T07:33:00;99650.56;;;10.53;61.84
30875;BME280;17581;43.222;27.924;2024-01-16T07:35:25;99647.31;;;10.50;61.69
30875;BME280;17581;43.222;27.924;2024-01-16T07:37:51;99652.69;;;10.50;62.06
30875;BME280;17581;43.222;27.924;2024-01-16T07:40:17;99660.94;;;10.48;61.60
30875;BME280;17581;43.222;27.924;2024-01-16T07:42:42;99668.53;;;10.53;61.68
30875;BME280;17581;43.222;27.924;2024-01-16T07:45:08;99620.72;;;10.10;61.27
30875;BME280;17581;43.222;27.924;2024-01-16T07:47:34;99688.25;;;10.34;61.72
30875;BME280;17581;43.222;27.924;2024-01-16T07:50:01;99683.91;;;10.33;61.35
30875;BME280;17581;43.222;27.924;2024-01-16T07:52:27;99697.06;;;10.26;60.78
30875;BME280;17581;43.222;27.924;2024-01-16T07:54:53;99701.03;;;10.22;60.67
30875;BME280;17581;43.222;27.924;2024-01-16T07:57:18;99724.50;;;10.11;60.27
30875;BME280;17581;43.222;27.924;2024-01-16T07:59:44;99735.53;;;9.89;60.32
30875;BME280;17581;43.222;27.924;2024-01-16T08:02:10;99738.09;;;9.80;60.46
30875;BME280;17581;43.222;27.924;2024-01-16T08:04:35;99753.34;;;9.70;60.86
30875;BME280;17581;43.222;27.924;2024-01-16T08:07:01;99764.06;;;9.51;61.47
30875;BME280;17581;43.222;27.924;2024-01-16T08:09:27;99763.16;;;9.22;62.10
30875;BME280;17581;43.222;27.924;2024-01-16T08:11:53;99791.56;;;9.24;62.21
30875;BME280;17581;43.222;27.924;2024-01-16T08:14:18;99791.25;;;9.18;62.70
30875;BME280;17581;43.222;27.924;2024-01-16T08:16:44;99794.72;;;8.99;63.13
30875;BME280;17581;43.222;27.924;2024-01-16T08:19:09;99816.59;;;8.95;63.54
30875;BME280;17581;43.222;27.924;2024-01-16T08:21:35;99809.88;;;8.80;63.80
30875;BME280;17581;43.222;27.924;2024-01-16T08:24:01;99817.16;;;8.68;64.23
30875;BME280;17581;43.222;27.924;2024-01-16T08:26:27;99830.50;;;8.58;64.76
30875;BME280;17581;43.222;27.924;2024-01-16T08:28:54;99844.06;;;8.66;64.13
30875;BME280;17581;43.222;27.924;2024-01-16T08:31:19;99811.34;;;8.42;64.31
30875;BME280;17581;43.222;27.924;2024-01-16T08:33:45;99847.97;;;8.53;64.61
30875;BME280;17581;43.222;27.924;2024-01-16T08:36:11;99860.16;;;8.46;64.16
30875;BME280;17581;43.222;27.924;2024-01-16T08:38:36;99804.34;;;7.98;64.86
30875;BME280;17581;43.222;27.924;2024-01-16T08:41:02;99861.59;;;8.18;64.88
30875;BME280;17581;43.222;27.924;2024-01-16T08:43:32;99878.19;;;8.12;65.33
30875;BME280;17581;43.222;27.924;2024-01-16T08:45:57;99878.81;;;8.04;65.23
30875;BME280;17581;43.222;27.924;2024-01-16T08:48:23;99878.94;;;8.03;65.40
30875;BME280;17581;43.222;27.924;2024-01-16T08:50:48;99848.69;;;7.91;65.19
30875;BME280;17581;43.222;27.924;2024-01-16T08:53:14;99880.72;;;7.82;66.03
30875;BME280;17581;43.222;27.924;2024-01-16T08:55:39;99867.69;;;7.77;65.81
30875;BME280;17581;43.222;27.924;2024-01-16T08:58:05;99897.03;;;7.79;65.72
30875;BME280;17581;43.222;27.924;2024-01-16T09:00:30;99917.44;;;7.91;66.23
30875;BME280;17581;43.222;27.924;2024-01-16T09:02:56;99932.75;;;8.00;66.01
30875;BME280;17581;43.222;27.924;2024-01-16T09:05:22;99930.13;;;7.89;65.96
30875;BME280;17581;43.222;27.924;2024-01-16T09:07:51;99933.00;;;7.97;66.12
30875;BME280;17581;43.222;27.924;2024-01-16T09:10:18;99936.75;;;8.05;65.64
30875;BME280;17581;43.222;27.924;2024-01-16T09:12:43;99900.44;;;7.81;65.70
30875;BME280;17581;43.222;27.924;2024-01-16T09:15:10;99914.97;;;7.99;65.52
30875;BME280;17581;43.222;27.924;2024-01-16T09:17:35;99918.34;;;8.12;64.79
30875;BME280;17581;43.222;27.924;2024-01-16T09:20:01;99935.19;;;8.03;64.34
30875;BME280;17581;43.222;27.924;2024-01-16T09:22:26;99892.38;;;7.92;64.42
30875;BME280;17581;43.222;27.924;2024-01-16T09:24:52;99932.97;;;8.19;63.54
30875;BME280;17581;43.222;27.924;2024-01-16T09:27:18;99946.81;;;8.24;63.44
30875;BME280;17581;43.222;27.924;2024-01-16T09:29:43;99957.38;;;8.26;63.23
30875;BME280;17581;43.222;27.924;2024-01-16T09:32:09;99948.25;;;8.39;62.71
30875;BME280;17581;43.222;27.924;2024-01-16T09:34:34;99946.69;;;8.37;61.72
30875;BME280;17581;43.222;27.924;2024-01-16T09:37:00;99975.25;;;8.47;61.82
30875;BME280;17581;43.222;27.924;2024-01-16T09:39:28;99953.56;;;8.50;61.42
30875;BME280;17581;43.222;27.924;2024-01-16T09:41:59;99942.91;;;8.60;60.57
30875;BME280;17581;43.222;27.924;2024-01-16T09:47:59;99935.91;;;8.68;60.44
30875;BME280;17581;43.222;27.924;2024-01-16T09:50:25;99940.75;;;8.74;60.27
30875;BME280;17581;43.222;27.924;2024-01-16T09:52:51;99872.06;;;8.21;59.96
30875;BME280;17581;43.222;27.924;2024-01-16T09:55:16;99961.25;;;8.75;59.40
30875;BME280;17581;43.222;27.924;2024-01-16T09:57:45;99933.72;;;8.73;58.68
30875;BME280;17581;43.222;27.924;2024-01-16T10:00:12;99943.59;;;8.73;58.95
30875;BME280;17581;43.222;27.924;2024-01-16T10:02:39;99948.09;;;8.72;58.63
30875;BME280;17581;43.222;27.924;2024-01-16T10:05:14;99911.00;;;8.57;58.64
30875;BME280;17581;43.222;27.924;2024-01-16T10:07:42;99952.69;;;8.82;58.21
30875;BME280;17581;43.222;27.924;2024-01-16T10:10:10;99949.03;;;8.83;57.97
30875;BME280;17581;43.222;27.924;2024-01-16T10:12:37;99951.03;;;8.90;57.90
30875;BME280;17581;43.222;27.924;2024-01-16T10:15:07;99944.59;;;8.93;57.58
30875;BME280;17581;43.222;27.924;2024-01-16T10:17:40;99949.03;;;9.03;56.82
30875;BME280;17581;43.222;27.924;2024-01-16T10:20:08;99951.81;;;9.22;56.35
30875;BME280;17581;43.222;27.924;2024-01-16T10:22:39;99955.28;;;9.34;56.01
30875;BME280;17581;43.222;27.924;2024-01-16T10:25:11;99966.91;;;9.44;55.15
30875;BME280;17581;43.222;27.924;2024-01-16T10:27:39;99918.03;;;9.41;54.70
30875;BME280;17581;43.222;27.924;2024-01-16T10:30:06;99962.34;;;9.65;54.17
30875;BME280;17581;43.222;27.924;2024-01-16T10:32:35;99900.25;;;9.49;53.58
30875;BME280;17581;43.222;27.924;2024-01-16T10:37:51;99968.00;;;10.12;53.30
30875;BME280;17581;43.222;27.924;2024-01-16T10:44:06;99962.88;;;10.49;50.64
30875;BME280;17581;43.222;27.924;2024-01-16T10:46:32;99976.28;;;10.58;50.08
30875;BME280;17581;43.222;27.924;2024-01-16T10:49:02;99967.94;;;10.71;49.84
30875;BME280;17581;43.222;27.924;2024-01-16T10:51:29;99984.25;;;10.88;49.02
30875;BME280;17581;43.222;27.924;2024-01-16T10:53:59;99989.88;;;11.05;47.04
30875;BME280;17581;43.222;27.924;2024-01-16T10:56:56;99986.78;;;11.09;46.25
30875;BME280;17581;43.222;27.924;2024-01-16T11:02:24;99997.94;;;11.24;45.93
30875;BME280;17581;43.222;27.924;2024-01-16T11:04:53;100006.56;;;11.27;45.73
30875;BME280;17581;43.222;27.924;2024-01-16T11:07:19;99985.31;;;11.24;44.76
30875;BME280;17581;43.222;27.924;2024-01-16T11:09:48;100002.16;;;11.36;44.60
30875;BME280;17581;43.222;27.924;2024-01-16T11:12:14;100027.81;;;11.40;43.33
30875;BME280;17581;43.222;27.924;2024-01-16T11:14:45;100032.72;;;11.54;42.36
30875;BME280;17581;43.222;27.924;2024-01-16T11:17:18;100036.84;;;11.58;42.41
30875;BME280;17581;43.222;27.924;2024-01-16T11:19:46;100041.34;;;11.67;42.22
30875;BME280;17581;43.222;27.924;2024-01-16T11:22:12;100046.94;;;11.93;40.77
30875;BME280;17581;43.222;27.924;2024-01-16T11:24:38;100046.63;;;12.06;41.05
30875;BME280;17581;43.222;27.924;2024-01-16T11:27:04;100037.34;;;12.18;40.50
30875;BME280;17581;43.222;27.924;2024-01-16T11:31:56;100065.47;;;12.42;41.17
30875;BME280;17581;43.222;27.924;2024-01-16T11:37:07;100072.59;;;12.61;39.22
30875;BME280;17581;43.222;27.924;2024-01-16T11:39:33;100069.31;;;12.40;39.07
30875;BME280;17581;43.222;27.924;2024-01-16T12:01:38;100158.59;;;11.52;41.37
30875;BME280;17581;43.222;27.924;2024-01-16T12:04:07;100085.63;;;10.98;41.78
30875;BME280;17581;43.222;27.924;2024-01-16T12:06:36;100165.25;;;11.10;43.31
30875;BME280;17581;43.222;27.924;2024-01-16T12:09:13;100149.59;;;10.84;44.55
30875;BME280;17581;43.222;27.924;2024-01-16T12:11:40;100162.59;;;10.79;45.95
30875;BME280;17581;43.222;27.924;2024-01-16T12:14:08;100171.94;;;10.75;46.45
30875;BME280;17581;43.222;27.924;2024-01-16T12:16:34;100178.00;;;10.68;46.94
30875;BME280;17581;43.222;27.924;2024-01-16T12:19:09;100178.69;;;10.60;47.27
30875;BME280;17581;43.222;27.924;2024-01-16T12:21:39;100179.25;;;10.54;47.77
30875;BME280;17581;43.222;27.924;2024-01-16T12:24:05;100174.25;;;10.50;48.01
30875;BME280;17581;43.222;27.924;2024-01-16T12:26:31;100180.47;;;10.50;48.47
30875;BME280;17581;43.222;27.924;2024-01-16T12:28:57;100196.13;;;10.66;48.25
30875;BME280;17581;43.222;27.924;2024-01-16T12:31:23;100195.41;;;10.73;47.55
30875;BME280;17581;43.222;27.924;2024-01-16T12:33:50;100196.47;;;10.82;47.00
30875;BME280;17581;43.222;27.924;2024-01-16T12:36:16;100200.47;;;10.97;46.25
30875;BME280;17581;43.222;27.924;2024-01-16T12:38:42;100202.31;;;10.97;45.63
30875;BME280;17581;43.222;27.924;2024-01-16T12:41:09;100187.00;;;10.87;45.06
30875;BME280;17581;43.222;27.924;2024-01-16T12:43:36;100208.28;;;11.10;45.44
30875;BME280;17581;43.222;27.924;2024-01-16T12:46:05;100219.06;;;11.10;45.86
30875;BME280;17581;43.222;27.924;2024-01-16T12:48:31;100204.03;;;10.98;45.29
30875;BME280;17581;43.222;27.924;2024-01-16T12:51:01;100233.81;;;11.15;46.27
30875;BME280;17581;43.222;27.924;2024-01-16T12:53:28;100246.84;;;11.20;45.55
30875;BME280;17581;43.222;27.924;2024-01-16T12:56:00;100248.22;;;11.05;46.47
30875;BME280;17581;43.222;27.924;2024-01-16T12:58:34;100247.06;;;10.98;46.30
30875;BME280;17581;43.222;27.924;2024-01-16T13:01:28;100255.22;;;10.86;46.22
30875;BME280;17581;43.222;27.924;2024-01-16T13:03:54;100247.00;;;10.78;45.52
30875;BME280;17581;43.222;27.924;2024-01-16T13:06:23;100236.16;;;10.59;44.83
30875;BME280;17581;43.222;27.924;2024-01-16T13:08:50;100269.44;;;10.68;44.11
30875;BME280;17581;43.222;27.924;2024-01-16T13:11:16;100274.69;;;10.69;43.63
30875;BME280;17581;43.222;27.924;2024-01-16T13:13:48;100298.75;;;10.71;42.75
30875;BME280;17581;43.222;27.924;2024-01-16T13:16:15;100302.66;;;10.57;42.11
30875;BME280;17581;43.222;27.924;2024-01-16T13:18:41;100277.09;;;10.42;42.58
30875;BME280;17581;43.222;27.924;2024-01-16T13:21:08;100279.03;;;10.40;42.74
30875;BME280;17581;43.222;27.924;2024-01-16T13:23:33;100304.59;;;10.55;42.70
30875;BME280;17581;43.222;27.924;2024-01-16T13:26:00;100317.41;;;10.63;42.90